Time;durP1;ratioP1;P1;durP2;ratioP2;P2;SDS_P1;SDS_P2;PMS_P1;PMS_P2;Temp;Humidity;BMP_temperature;BMP_pressure;BME280_temperature;BME280_humidity;BME280_pressure;Samples;Min_cycle;Max_cycle;Signal;HPM_P1;HPM_P2
2022/03/26 00:01:50;;;;;;;40.33;23.07;;;;;;;6.14;59.00;97231.31;5127224;28;20027;-75
2022/03/26 00:04:15;;;;;;;35.83;22.70;;;;;;;6.11;58.56;97229.75;5128129;28;20063;-76
2022/03/26 00:06:41;;;;;;;37.70;22.47;;;;;;;6.06;58.67;97236.22;5131212;27;20030;-76
2022/03/26 00:09:07;;;;;;;34.53;21.93;;;;;;;6.03;58.89;97228.59;5126515;27;20028;-76
2022/03/26 00:11:33;;;;;;;38.97;22.57;;;;;;;6.06;58.68;97231.00;5129814;27;20039;-76
2022/03/26 00:13:59;;;;;;;40.03;23.13;;;;;;;5.89;59.20;97232.97;5121163;28;20129;-75
2022/03/26 00:16:25;;;;;;;37.93;22.97;;;;;;;5.85;59.76;97228.09;5120508;27;20668;-76
2022/03/26 00:18:50;;;;;;;37.27;22.37;;;;;;;5.87;59.92;97234.03;5125000;28;20659;-76
2022/03/26 00:21:16;;;;;;;35.87;21.10;;;;;;;5.90;59.59;97232.06;5124799;27;20031;-76
2022/03/26 00:23:42;;;;;;;37.33;21.60;;;;;;;5.87;60.18;97232.28;5123212;27;20031;-76
2022/03/26 00:26:10;;;;;;;42.80;23.10;;;;;;;5.76;60.01;97231.31;5108425;27;20080;-76
2022/03/26 00:28:37;;;;;;;44.70;22.93;;;;;;;5.67;60.44;97233.63;5114659;27;20620;-77
2022/03/26 00:31:06;;;;;;;35.63;22.13;;;;;;;5.71;60.64;97234.25;5111954;28;20023;-76
2022/03/26 00:33:32;;;;;;;42.97;22.37;;;;;;;5.56;61.45;97237.88;5104526;28;20081;-76
2022/03/26 00:35:58;;;;;;;39.40;21.27;;;;;;;5.42;62.31;97244.03;5083485;28;20024;-76
2022/03/26 00:38:24;;;;;;;37.03;21.73;;;;;;;5.30;62.77;97235.28;5117733;27;20034;-76
2022/03/26 00:40:50;;;;;;;37.90;23.30;;;;;;;5.36;63.05;97239.22;5108064;27;20027;-76
2022/03/26 00:43:16;;;;;;;38.07;22.20;;;;;;;5.32;62.50;97241.19;5110162;28;20106;-77
2022/03/26 00:45:45;;;;;;;38.10;22.30;;;;;;;5.16;63.76;97248.38;5110333;28;20077;-76
2022/03/26 00:48:11;;;;;;;39.03;23.23;;;;;;;5.08;64.62;97241.06;5110145;28;20141;-77
2022/03/26 00:50:37;;;;;;;38.93;21.13;;;;;;;5.02;64.82;97243.22;5104987;28;20028;-76
2022/03/26 00:53:03;;;;;;;34.10;21.63;;;;;;;5.02;64.61;97238.00;5110147;28;20040;-76
2022/03/26 00:55:29;;;;;;;38.03;22.67;;;;;;;5.05;64.70;97232.59;5093859;28;20476;-77
2022/03/26 00:57:55;;;;;;;38.70;24.23;;;;;;;5.04;64.58;97236.16;5110634;28;20035;-77
2022/03/26 01:00:21;;;;;;;44.03;24.13;;;;;;;4.90;65.63;97235.28;5110260;28;20465;-76
2022/03/26 01:02:47;;;;;;;36.57;23.30;;;;;;;4.89;65.63;97236.19;5110047;28;20050;-75
2022/03/26 01:05:13;;;;;;;38.30;21.37;;;;;;;4.81;66.39;97235.03;5110192;28;20520;-76
2022/03/26 01:07:39;;;;;;;35.70;21.63;;;;;;;4.79;66.78;97237.72;5111677;28;20038;-76
2022/03/26 01:10:07;;;;;;;38.83;20.67;;;;;;;4.63;67.64;97235.28;5109723;28;20579;-75
2022/03/26 01:12:32;;;;;;;36.33;20.63;;;;;;;4.67;67.53;97238.53;5107945;28;20035;-77
2022/03/26 01:14:58;;;;;;;37.50;21.83;;;;;;;4.63;67.26;97240.50;5110945;28;20473;-77
2022/03/26 01:17:24;;;;;;;34.40;20.63;;;;;;;4.61;67.74;97241.53;5110703;28;20122;-77
2022/03/26 01:19:51;;;;;;;34.90;20.23;;;;;;;4.58;67.98;97236.50;5093149;28;20051;-74
2022/03/26 01:22:18;;;;;;;35.60;21.13;;;;;;;4.56;68.18;97234.00;5107511;28;20415;-74
2022/03/26 01:24:43;;;;;;;32.60;19.57;;;;;;;4.52;68.35;97242.09;5109565;28;21888;-77
2022/03/26 01:27:09;;;;;;;35.57;22.10;;;;;;;4.48;68.34;97238.84;5104663;28;20537;-77
2022/03/26 01:29:38;;;;;;;32.73;19.50;;;;;;;4.47;69.09;97245.00;5104712;28;20488;-77
2022/03/26 01:32:08;;;;;;;34.60;18.87;;;;;;;4.56;68.81;97243.56;5109485;28;20139;-77
2022/03/26 01:34:34;;;;;;;31.17;20.23;;;;;;;4.61;67.84;97241.53;5106673;28;20501;-76
2022/03/26 01:37:04;;;;;;;37.87;19.63;;;;;;;4.61;68.46;97238.91;5106273;28;20446;-76
2022/03/26 01:39:30;;;;;;;35.33;19.83;;;;;;;4.48;68.56;97237.06;5109415;28;21068;-77
2022/03/26 01:42:06;;;;;;;33.97;19.97;;;;;;;4.54;67.94;97230.66;5104881;28;20450;-77
2022/03/26 01:44:34;;;;;;;40.83;21.90;;;;;;;4.56;68.39;97228.81;5106843;28;20541;-76
2022/03/26 01:47:00;;;;;;;34.13;19.60;;;;;;;4.54;68.36;97232.44;5096185;28;20508;-77
2022/03/26 01:49:27;;;;;;;31.57;19.03;;;;;;;4.61;67.79;97224.13;5103408;28;20522;-77
2022/03/26 01:51:53;;;;;;;31.57;19.30;;;;;;;4.57;67.67;97233.06;5108790;28;20633;-77
2022/03/26 01:54:19;;;;;;;39.87;21.13;;;;;;;4.56;68.30;97233.16;5095767;28;20445;-77
2022/03/26 01:56:45;;;;;;;36.60;20.13;;;;;;;4.52;68.00;97226.47;5101336;28;20465;-77
2022/03/26 01:59:11;;;;;;;35.73;19.27;;;;;;;4.41;68.92;97227.97;5091032;28;20464;-76
2022/03/26 02:01:38;;;;;;;39.40;21.93;;;;;;;4.36;69.06;97224.84;5105813;28;20605;-77
2022/03/26 02:04:05;;;;;;;35.33;20.40;;;;;;;4.21;69.85;97224.03;5107760;28;20457;-77
2022/03/26 02:06:33;;;;;;;36.60;20.80;;;;;;;4.22;70.69;97224.84;5108481;28;20042;-76
2022/03/26 02:09:10;;;;;;;32.73;19.50;;;;;;;4.13;71.04;97223.69;5108673;28;20540;-76
2022/03/26 02:11:38;;;;;;;38.70;21.13;;;;;;;4.22;70.28;97219.66;5109948;28;20457;-76
2022/03/26 02:14:07;;;;;;;37.43;21.33;;;;;;;4.11;71.13;97224.69;5090991;28;21001;-76
2022/03/26 02:16:34;;;;;;;33.60;19.43;;;;;;;4.18;70.97;97220.78;5107155;28;20458;-77
2022/03/26 02:19:00;;;;;;;33.57;19.93;;;;;;;4.18;70.50;97225.97;5107165;28;20453;-76
2022/03/26 02:21:26;;;;;;;36.00;20.97;;;;;;;4.12;71.17;97226.34;5108670;28;20453;-77
2022/03/26 02:23:52;;;;;;;38.00;20.43;;;;;;;4.02;71.22;97223.47;5103610;28;20015;-76
2022/03/26 02:26:22;;;;;;;35.43;20.73;;;;;;;3.86;72.47;97215.81;5103615;28;20089;-76
2022/03/26 02:28:51;;;;;;;38.43;21.17;;;;;;;3.78;72.86;97231.03;5107953;28;20476;-76
2022/03/26 02:31:16;;;;;;;32.57;18.67;;;;;;;3.70;73.98;97225.47;5108079;28;20538;-76
2022/03/26 02:33:42;;;;;;;34.27;18.60;;;;;;;3.71;74.18;97227.13;5108136;28;20515;-77
2022/03/26 02:36:09;;;;;;;35.73;19.90;;;;;;;3.65;74.59;97227.47;5115539;27;20031;-77
2022/03/26 02:38:36;;;;;;;33.10;18.77;;;;;;;3.52;75.10;97230.84;5109542;28;20491;-74
2022/03/26 02:41:03;;;;;;;34.13;19.30;;;;;;;3.51;75.52;97229.16;5108817;28;20961;-74
2022/03/26 02:43:30;;;;;;;32.53;18.53;;;;;;;3.45;75.97;97229.50;5108949;28;21001;-74
2022/03/26 02:45:56;;;;;;;34.13;19.90;;;;;;;3.42;76.89;97228.84;5108891;28;21073;-74
2022/03/26 02:48:22;;;;;;;39.53;20.57;;;;;;;3.44;75.81;97219.22;5099063;28;20544;-74
2022/03/26 02:50:48;;;;;;;39.20;19.77;;;;;;;3.45;75.71;97233.88;5107837;28;20110;-77
2022/03/26 02:53:14;;;;;;;36.60;20.03;;;;;;;3.43;76.03;97220.97;5107084;28;20768;-77
2022/03/26 02:55:40;;;;;;;34.23;20.10;;;;;;;3.46;76.13;97220.78;5108984;28;20518;-76
2022/03/26 02:58:10;;;;;;;32.53;18.53;;;;;;;3.49;75.44;97220.63;5109020;28;20547;-76
2022/03/26 03:00:37;;;;;;;40.17;19.43;;;;;;;3.49;75.79;97212.81;5107258;28;20841;-76
2022/03/26 03:03:04;;;;;;;32.33;19.47;;;;;;;3.58;75.42;97213.19;5108769;28;21096;-77
2022/03/26 03:05:29;;;;;;;33.33;18.60;;;;;;;3.52;75.54;97212.63;5106866;28;20897;-78
2022/03/26 03:07:56;;;;;;;31.40;18.37;;;;;;;3.48;76.00;97205.91;5103179;28;20714;-74
2022/03/26 03:10:22;;;;;;;38.10;18.20;;;;;;;3.47;76.05;97212.06;5107866;28;20034;-75
2022/03/26 03:12:48;;;;;;;36.43;20.63;;;;;;;3.44;76.33;97214.00;5086911;28;20449;-75
2022/03/26 03:15:18;;;;;;;30.23;17.60;;;;;;;3.36;76.24;97217.06;5093548;28;20020;-75
2022/03/26 03:17:45;;;;;;;37.63;19.00;;;;;;;3.38;76.53;97211.75;5098673;28;20579;-76
2022/03/26 03:20:12;;;;;;;34.33;18.53;;;;;;;3.28;77.64;97217.50;5108740;28;20483;-76
2022/03/26 03:22:38;;;;;;;33.57;18.87;;;;;;;3.23;77.33;97216.94;5107717;28;20453;-76
2022/03/26 03:25:05;;;;;;;34.47;17.67;;;;;;;3.30;77.45;97215.66;5112410;28;20519;-76
2022/03/26 03:27:32;;;;;;;33.50;18.07;;;;;;;3.41;76.75;97215.03;5098397;28;20473;-78
2022/03/26 03:29:57;;;;;;;32.13;19.27;;;;;;;3.35;76.43;97217.97;5116184;28;20493;-78
2022/03/26 03:32:23;;;;;;;35.30;19.30;;;;;;;3.35;76.77;97217.97;5111241;28;20529;-77
2022/03/26 03:34:50;;;;;;;38.30;18.67;;;;;;;3.35;76.78;97217.97;5111895;28;20040;-78
2022/03/26 03:37:16;;;;;;;35.13;18.37;;;;;;;3.36;76.55;97214.47;5110137;28;20074;-76
2022/03/26 03:39:42;;;;;;;36.87;18.97;;;;;;;3.46;75.93;97218.19;5117576;28;20425;-77
2022/03/26 03:42:09;;;;;;;30.93;18.10;;;;;;;3.56;74.83;97220.25;5087925;28;20031;-78
2022/03/26 03:44:35;;;;;;;34.97;19.03;;;;;;;3.54;74.27;97213.38;5112889;28;20413;-78
2022/03/26 03:47:02;;;;;;;41.37;19.43;;;;;;;3.52;74.51;97215.25;5108514;28;20536;-77
2022/03/26 03:49:31;;;;;;;38.70;19.60;;;;;;;3.55;74.65;97203.78;5117834;28;20442;-78
2022/03/26 03:52:00;;;;;;;34.33;18.13;;;;;;;3.49;74.47;97211.97;5118597;28;20466;-78
2022/03/26 03:54:27;;;;;;;32.50;18.37;;;;;;;3.49;74.97;97207.63;5113916;28;20514;-76
2022/03/26 03:56:53;;;;;;;29.47;16.73;;;;;;;3.53;74.27;97200.47;5089931;28;20584;-76
2022/03/26 03:59:18;;;;;;;34.60;19.27;;;;;;;3.45;74.39;97203.50;5105898;28;20457;-75
2022/03/26 04:01:44;;;;;;;38.17;17.60;;;;;;;3.44;74.99;97209.63;5109712;28;20468;-76
2022/03/26 04:04:10;;;;;;;34.87;17.70;;;;;;;3.47;74.33;97206.84;5110747;28;20024;-76
2022/03/26 04:06:37;;;;;;;34.57;19.53;;;;;;;3.45;74.20;97202.66;5110170;28;20082;-76
2022/03/26 04:09:03;;;;;;;36.90;19.93;;;;;;;3.43;74.23;97201.94;5110899;28;20453;-76
2022/03/26 04:11:28;;;;;;;31.80;18.37;;;;;;;3.44;74.43;97204.44;5112388;28;20544;-76
2022/03/26 04:13:54;;;;;;;34.20;18.20;;;;;;;3.41;74.65;97202.03;5104910;28;20077;-76
2022/03/26 04:16:20;;;;;;;39.03;19.00;;;;;;;3.45;74.13;97206.09;5103499;28;20110;-76
2022/03/26 04:18:46;;;;;;;34.40;17.33;;;;;;;3.43;74.64;97202.78;5110452;28;20067;-77
2022/03/26 04:21:12;;;;;;;33.10;18.53;;;;;;;3.42;74.81;97205.44;5109920;28;20495;-76
2022/03/26 04:23:37;;;;;;;40.60;19.37;;;;;;;3.38;74.47;97206.56;5110521;28;20156;-75
2022/03/26 04:26:03;;;;;;;33.63;18.67;;;;;;;3.36;74.66;97198.88;5112030;28;20120;-76
2022/03/26 04:28:30;;;;;;;36.47;18.87;;;;;;;3.31;75.41;97206.94;5089890;28;20024;-76
2022/03/26 04:30:56;;;;;;;30.50;17.90;;;;;;;3.28;75.39;97212.31;5114364;27;20070;-76
2022/03/26 04:33:24;;;;;;;35.63;19.00;;;;;;;3.30;75.55;97209.63;5101723;28;20839;-76
2022/03/26 04:35:50;;;;;;;34.17;18.33;;;;;;;3.18;75.94;97205.13;5110048;28;20468;-77
2022/03/26 04:38:16;;;;;;;33.03;18.70;;;;;;;3.14;75.86;97214.03;5101851;28;20036;-76
2022/03/26 04:40:41;;;;;;;34.30;18.60;;;;;;;3.20;75.78;97198.94;5114282;27;20518;-76
2022/03/26 04:43:07;;;;;;;33.57;17.10;;;;;;;3.22;75.84;97212.69;5111397;27;20046;-76
2022/03/26 04:45:33;;;;;;;32.43;17.20;;;;;;;3.19;76.27;97212.88;5092079;28;20115;-76
2022/03/26 04:47:59;;;;;;;35.10;19.07;;;;;;;3.18;75.95;97218.13;5109465;28;20055;-75
2022/03/26 04:50:26;;;;;;;35.53;16.80;;;;;;;3.11;76.56;97214.22;5111749;28;20066;-76
2022/03/26 04:52:52;;;;;;;29.50;17.57;;;;;;;3.13;76.52;97213.22;5109438;28;20515;-76
2022/03/26 04:55:18;;;;;;;32.60;18.37;;;;;;;3.04;76.74;97213.75;5109671;28;20530;-76
2022/03/26 04:57:47;;;;;;;30.33;17.73;;;;;;;2.99;77.45;97221.81;5110124;28;21035;-76
2022/03/26 05:00:15;;;;;;;34.07;18.40;;;;;;;3.02;77.07;97229.44;5110123;28;20449;-75
2022/03/26 05:02:42;;;;;;;30.37;17.70;;;;;;;2.99;77.17;97220.97;5109827;28;20456;-74
2022/03/26 05:05:09;;;;;;;38.17;21.77;;;;;;;2.97;77.19;97225.41;5109468;28;20926;-76
2022/03/26 05:07:45;;;;;;;34.00;18.10;;;;;;;2.93;77.47;97224.75;5109541;28;20449;-77
2022/03/26 05:10:12;;;;;;;31.97;17.50;;;;;;;2.91;77.62;97225.75;5097026;28;20457;-76
2022/03/26 05:12:37;;;;;;;34.53;18.70;;;;;;;2.97;77.47;97226.25;5102506;28;20560;-76
2022/03/26 05:15:03;;;;;;;30.57;18.13;;;;;;;2.91;77.21;97231.78;5109579;28;20469;-76
2022/03/26 05:17:29;;;;;;;32.60;18.40;;;;;;;2.97;77.01;97234.03;5109464;28;20039;-77
2022/03/26 05:19:55;;;;;;;30.30;18.37;;;;;;;2.98;77.09;97235.72;5107545;28;20795;-77
2022/03/26 05:22:20;;;;;;;30.57;18.13;;;;;;;2.94;76.97;97234.22;5109434;28;20440;-76
2022/03/26 05:24:46;;;;;;;38.23;19.50;;;;;;;2.97;76.93;97238.41;5110099;28;20080;-76
2022/03/26 05:27:12;;;;;;;33.33;17.87;;;;;;;3.03;76.89;97238.91;5108624;28;20201;-75
2022/03/26 05:29:38;;;;;;;33.50;17.20;;;;;;;3.10;76.49;97228.16;5103308;28;20030;-76
2022/03/26 05:32:06;;;;;;;32.10;17.00;;;;;;;3.12;76.18;97232.34;5092037;28;20457;-76
2022/03/26 05:34:32;;;;;;;29.83;17.13;;;;;;;3.19;75.53;97225.03;5109134;28;20035;-77
2022/03/26 05:36:58;;;;;;;37.60;18.30;;;;;;;3.39;74.64;97229.91;5092151;28;20457;-75
2022/03/26 05:39:24;;;;;;;31.47;17.20;;;;;;;3.52;73.17;97229.97;5110699;28;20529;-77
2022/03/26 05:41:50;;;;;;;34.10;18.47;;;;;;;3.75;72.77;97239.00;5100853;28;20031;-76
2022/03/26 05:44:16;;;;;;;33.77;18.93;;;;;;;3.70;72.28;97241.91;5107986;28;20024;-76
2022/03/26 05:46:42;;;;;;;35.77;19.73;;;;;;;3.72;72.33;97252.19;5108633;28;20484;-77
2022/03/26 05:49:09;;;;;;;33.37;20.33;;;;;;;3.81;71.39;97254.25;5109237;28;20027;-76
2022/03/26 05:51:34;;;;;;;39.47;19.53;;;;;;;4.13;69.53;97260.13;5109011;28;20501;-77
2022/03/26 05:54:00;;;;;;;31.93;18.27;;;;;;;4.36;68.74;97261.31;5108021;28;20453;-77
2022/03/26 05:56:26;;;;;;;29.67;18.53;;;;;;;4.52;67.63;97262.94;5100119;28;20065;-76
2022/03/26 05:58:52;;;;;;;36.90;18.57;;;;;;;4.62;66.65;97264.84;5108586;28;20434;-76
2022/03/26 06:01:17;;;;;;;29.07;16.67;;;;;;;4.65;66.19;97263.84;5109850;28;20138;-76
2022/03/26 06:03:43;;;;;;;30.87;16.77;;;;;;;4.99;64.64;97262.50;5124014;27;20027;-75
2022/03/26 06:06:09;;;;;;;30.70;18.20;;;;;;;5.00;64.53;97255.50;5101034;28;20039;-76
2022/03/26 06:08:35;;;;;;;32.53;19.07;;;;;;;5.31;62.79;97267.41;5091488;28;20032;-77
2022/03/26 06:11:00;;;;;;;33.93;19.00;;;;;;;5.43;62.76;97267.44;5101902;28;20028;-77
2022/03/26 06:13:26;;;;;;;32.60;17.67;;;;;;;5.83;60.90;97267.31;5107844;28;20407;-77
2022/03/26 06:15:52;;;;;;;28.17;16.83;;;;;;;5.80;59.91;97264.97;5108637;28;20201;-75
2022/03/26 06:18:17;;;;;;;29.67;18.43;;;;;;;5.75;61.31;97277.47;5109346;28;20088;-76
2022/03/26 06:20:44;;;;;;;35.80;21.93;;;;;;;5.74;60.91;97283.63;5091802;28;20023;-76
2022/03/26 06:23:10;;;;;;;34.03;18.60;;;;;;;6.10;59.42;97277.72;5107593;28;20069;-77
2022/03/26 06:25:36;;;;;;;29.17;16.60;;;;;;;6.17;58.74;97275.53;5109966;28;20458;-77
2022/03/26 06:28:02;;;;;;;35.93;19.50;;;;;;;6.46;57.56;97277.84;5108900;28;20987;-77
2022/03/26 06:30:28;;;;;;;33.80;21.73;;;;;;;6.74;56.98;97279.34;5108277;28;20038;-77
2022/03/26 06:32:53;;;;;;;38.50;21.43;;;;;;;6.78;55.89;97280.81;5111780;27;20027;-76
2022/03/26 06:35:19;;;;;;;31.00;17.67;;;;;;;7.06;54.92;97279.63;5109114;28;20016;-77
2022/03/26 06:37:45;;;;;;;30.33;18.10;;;;;;;6.86;55.58;97288.94;5103848;28;20063;-76
2022/03/26 06:40:11;;;;;;;33.40;18.50;;;;;;;7.28;54.42;97287.59;5109074;28;20396;-77
2022/03/26 06:42:37;;;;;;;30.37;19.10;;;;;;;7.07;54.94;97289.16;5109282;28;20031;-76
2022/03/26 06:45:03;;;;;;;35.43;20.10;;;;;;;7.68;53.61;97295.09;5091269;28;20031;-76
2022/03/26 06:47:31;;;;;;;35.10;20.27;;;;;;;8.27;51.77;97289.69;5091310;28;20075;-75
2022/03/26 06:49:57;;;;;;;31.13;18.93;;;;;;;7.96;52.84;97293.00;5108447;28;20031;-76
2022/03/26 06:52:24;;;;;;;33.17;20.53;;;;;;;7.82;53.16;97293.22;5107804;28;20035;-75
2022/03/26 06:54:50;;;;;;;34.90;20.37;;;;;;;7.71;53.34;97294.88;5102905;28;20107;-76
2022/03/26 06:57:16;;;;;;;33.47;18.63;;;;;;;7.61;53.54;97295.66;5108656;27;20050;-75
2022/03/26 06:59:42;;;;;;;32.03;18.87;;;;;;;7.56;54.02;97306.47;5108382;28;20039;-75
2022/03/26 07:02:08;;;;;;;34.37;17.23;;;;;;;7.97;53.20;97300.75;5109003;28;20067;-75
2022/03/26 07:04:33;;;;;;;30.87;18.13;;;;;;;7.52;54.07;97298.03;5103444;28;20045;-75
2022/03/26 07:06:59;;;;;;;31.57;17.73;;;;;;;7.96;52.31;97296.47;5109095;28;20087;-75
2022/03/26 07:09:25;;;;;;;34.50;18.17;;;;;;;8.13;52.61;97297.78;5107803;28;20032;-76
2022/03/26 07:11:51;;;;;;;29.07;17.40;;;;;;;7.98;53.06;97296.31;5109169;28;20032;-75
2022/03/26 07:14:18;;;;;;;33.07;18.57;;;;;;;8.88;50.84;97302.41;5099593;28;20031;-75
2022/03/26 07:16:44;;;;;;;30.33;17.90;;;;;;;8.85;50.47;97296.56;5098983;28;20036;-75
2022/03/26 07:19:10;;;;;;;35.67;18.83;;;;;;;9.14;49.87;97291.63;5107788;28;20488;-76
2022/03/26 07:21:37;;;;;;;33.90;17.93;;;;;;;8.92;48.81;97293.38;5099179;28;20048;-74
2022/03/26 07:24:04;;;;;;;33.20;18.13;;;;;;;9.23;49.05;97290.88;5108027;28;20038;-75
2022/03/26 07:26:30;;;;;;;32.73;18.43;;;;;;;9.22;48.81;97297.06;5105155;28;20119;-75
2022/03/26 07:28:56;;;;;;;28.57;17.50;;;;;;;9.59;47.71;97297.53;5101164;28;20036;-73
2022/03/26 07:31:23;;;;;;;33.60;18.87;;;;;;;10.01;46.85;97297.53;5100562;28;20028;-77
2022/03/26 07:33:49;;;;;;;30.83;18.00;;;;;;;9.68;47.68;97296.75;5103936;28;20496;-76
2022/03/26 07:36:15;;;;;;;28.07;17.60;;;;;;;9.60;48.07;97299.19;5107389;28;20084;-77
2022/03/26 07:38:42;;;;;;;32.23;17.57;;;;;;;9.96;47.25;97304.97;5108718;28;20122;-76
2022/03/26 07:41:08;;;;;;;34.13;21.80;;;;;;;10.15;46.51;97293.72;5102439;28;20066;-77
2022/03/26 07:43:34;;;;;;;32.23;17.63;;;;;;;9.87;47.26;97300.50;5092227;28;20055;-75
2022/03/26 07:46:00;;;;;;;31.37;19.80;;;;;;;10.28;46.42;97304.88;5112411;27;20011;-75
2022/03/26 07:48:25;;;;;;;28.57;18.70;;;;;;;10.75;46.40;97296.50;5108806;28;20039;-75
2022/03/26 07:50:51;;;;;;;34.20;18.60;;;;;;;11.12;44.71;97293.25;5109735;28;20044;-76
2022/03/26 07:53:17;;;;;;;32.80;18.43;;;;;;;11.52;44.19;97293.13;5096622;28;20027;-76
2022/03/26 07:55:43;;;;;;;34.03;19.23;;;;;;;11.75;43.93;97301.56;5106027;28;20047;-76
2022/03/26 07:58:09;;;;;;;32.70;21.27;;;;;;;11.87;43.01;97300.50;5109795;28;20043;-76
2022/03/26 08:00:35;;;;;;;30.33;18.97;;;;;;;12.10;42.34;97302.78;5112713;28;20024;-76
2022/03/26 08:03:01;;;;;;;30.43;18.93;;;;;;;12.21;42.14;97302.66;5111707;28;20027;-78
2022/03/26 08:05:27;;;;;;;37.67;19.27;;;;;;;12.91;41.03;97305.66;5091394;28;20122;-76
2022/03/26 08:07:53;;;;;;;31.80;18.60;;;;;;;13.03;40.34;97308.94;5110776;28;20023;-75
2022/03/26 08:10:18;;;;;;;29.47;19.80;;;;;;;12.63;40.78;97312.75;5112752;28;20153;-77
2022/03/26 08:12:44;;;;;;;30.13;18.80;;;;;;;13.64;39.93;97302.97;5112555;28;20051;-76
2022/03/26 08:15:10;;;;;;;32.50;19.53;;;;;;;13.26;40.13;97310.22;5108257;28;20494;-76
2022/03/26 08:17:35;;;;;;;30.53;18.63;;;;;;;13.54;39.65;97313.63;5100926;28;20121;-76
2022/03/26 08:20:02;;;;;;;29.57;18.57;;;;;;;12.87;41.29;97315.69;5109369;28;20065;-76
2022/03/26 08:22:28;;;;;;;36.73;19.73;;;;;;;13.11;40.67;97316.94;5111574;27;20028;-77
2022/03/26 08:24:54;;;;;;;32.27;19.93;;;;;;;13.12;40.74;97319.44;5122949;27;20035;-76
2022/03/26 08:27:22;;;;;;;30.43;18.87;;;;;;;13.60;39.34;97313.00;5110974;28;20038;-75
2022/03/26 08:29:49;;;;;;;30.23;19.30;;;;;;;13.67;39.77;97315.88;5102726;28;20085;-75
2022/03/26 08:32:15;;;;;;;33.90;21.03;;;;;;;14.54;37.90;97312.38;5126998;27;20046;-75
2022/03/26 08:34:41;;;;;;;36.00;20.23;;;;;;;14.16;38.52;97316.28;5106388;28;20027;-75
2022/03/26 08:37:06;;;;;;;32.40;22.10;;;;;;;14.61;38.14;97312.59;5111219;27;20036;-75
2022/03/26 08:39:32;;;;;;;32.77;20.47;;;;;;;14.73;38.24;97310.50;5110243;28;20042;-75
2022/03/26 08:41:58;;;;;;;29.97;18.27;;;;;;;13.98;39.20;97311.00;5096277;28;20032;-75
2022/03/26 08:44:24;;;;;;;32.00;19.47;;;;;;;14.29;39.14;97314.03;5111336;28;20069;-75
2022/03/26 08:46:50;;;;;;;30.47;20.00;;;;;;;14.81;38.14;97311.34;5109827;27;20035;-76
2022/03/26 08:49:15;;;;;;;40.67;25.53;;;;;;;15.00;38.28;97301.50;5111366;28;20042;-76
2022/03/26 08:51:41;;;;;;;32.73;21.90;;;;;;;15.29;36.96;97312.50;5109846;28;20038;-76
2022/03/26 08:54:07;;;;;;;40.40;22.23;;;;;;;15.71;35.55;97306.28;5110675;28;20019;-76
2022/03/26 08:56:33;;;;;;;35.97;24.90;;;;;;;15.24;36.96;97313.97;5107041;27;20050;-76
2022/03/26 08:58:58;;;;;;;39.10;23.83;;;;;;;15.51;36.62;97304.91;5112352;27;20392;-76
2022/03/26 09:01:24;;;;;;;33.67;22.87;;;;;;;15.06;36.43;97316.75;5113749;27;20059;-75
2022/03/26 09:03:52;;;;;;;31.43;21.20;;;;;;;15.64;35.77;97310.56;5111479;28;20122;-76
2022/03/26 09:06:18;;;;;;;32.40;21.33;;;;;;;15.42;36.17;97308.53;5108911;28;20020;-75
2022/03/26 09:08:44;;;;;;;36.10;22.07;;;;;;;15.18;36.27;97311.97;5110651;28;20400;-75
2022/03/26 09:11:09;;;;;;;34.90;21.93;;;;;;;15.87;35.11;97316.09;5113992;27;20028;-76
2022/03/26 09:13:35;;;;;;;33.90;21.47;;;;;;;16.55;34.25;97314.00;5094087;28;20043;-76
2022/03/26 09:16:01;;;;;;;34.53;23.30;;;;;;;16.61;34.69;97315.97;5107233;28;20038;-76
2022/03/26 09:18:28;;;;;;;34.77;22.73;;;;;;;16.18;34.55;97312.75;5107781;28;20242;-76
2022/03/26 09:20:54;;;;;;;33.20;21.83;;;;;;;17.06;32.91;97309.19;5106025;28;20028;-76
2022/03/26 09:23:21;;;;;;;38.40;24.23;;;;;;;15.91;34.71;97311.28;5106732;28;20111;-76
2022/03/26 09:25:46;;;;;;;31.33;21.90;;;;;;;17.01;32.33;97307.06;5110220;28;20096;-76
2022/03/26 09:28:12;;;;;;;34.50;23.27;;;;;;;16.54;33.03;97296.41;5103384;28;20043;-75
2022/03/26 09:30:38;;;;;;;39.17;23.90;;;;;;;16.53;33.22;97303.53;5111394;28;20039;-76
2022/03/26 09:33:04;;;;;;;40.27;25.13;;;;;;;17.38;32.20;97289.56;5107119;28;20120;-75
2022/03/26 09:35:30;;;;;;;37.40;25.03;;;;;;;17.33;32.28;97306.03;5108502;28;20036;-76
2022/03/26 09:37:56;;;;;;;35.90;24.70;;;;;;;17.90;31.60;97300.34;5093141;28;20050;-76
2022/03/26 09:40:23;;;;;;;37.13;23.90;;;;;;;17.68;31.90;97291.34;5109504;28;20032;-75
2022/03/26 09:42:50;;;;;;;38.08;25.13;;;;;;;18.46;31.13;97288.50;5105053;28;20043;-75
2022/03/26 09:45:16;;;;;;;36.30;23.67;;;;;;;17.88;29.96;97296.22;5106512;28;20031;-75
2022/03/26 09:47:42;;;;;;;39.50;24.02;;;;;;;18.05;29.00;97296.91;5105253;28;20019;-76
2022/03/26 09:50:12;;;;;;;37.72;24.02;;;;;;;17.33;30.19;97303.38;5110900;28;20035;-76
2022/03/26 09:52:39;;;;;;;37.22;23.83;;;;;;;17.10;31.48;97298.06;5101202;28;20037;-76
2022/03/26 09:55:06;;;;;;;37.65;26.13;;;;;;;18.55;30.05;97293.56;5103866;28;20507;-76
2022/03/26 09:57:32;;;;;;;34.50;24.00;;;;;;;18.46;28.74;97293.84;5109179;28;20524;-76
2022/03/26 09:59:58;;;;;;;35.65;23.35;;;;;;;19.07;28.86;97287.28;5105839;28;20103;-76
2022/03/26 10:02:25;;;;;;;33.42;23.48;;;;;;;19.49;27.31;97291.06;5108710;28;20032;-76
2022/03/26 10:04:51;;;;;;;26.38;18.83;;;;;;;17.90;28.18;97283.53;5092057;28;20027;-76
2022/03/26 10:07:25;;;;;;;32.92;22.00;;;;;;;18.71;27.75;97291.72;5099834;28;20031;-76
2022/03/26 10:09:55;;;;;;;29.88;20.00;;;;;;;18.26;28.22;97282.91;5105368;28;20035;-76
2022/03/26 10:12:22;;;;;;;28.42;18.95;;;;;;;19.27;28.07;97290.19;5109021;28;20391;-76
2022/03/26 10:14:51;;;;;;;27.73;19.63;;;;;;;18.85;26.92;97280.28;5110144;28;20023;-77
2022/03/26 10:17:17;;;;;;;34.85;18.90;;;;;;;17.80;27.51;97290.94;5107696;28;20031;-76
2022/03/26 10:19:48;;;;;;;32.35;18.55;;;;;;;18.66;26.08;97286.94;5109883;28;20400;-76
2022/03/26 10:22:24;;;;;;;56.20;20.25;;;;;;;17.66;26.50;97285.38;5105226;28;20040;-76
2022/03/26 10:24:50;;;;;;;27.48;17.80;;;;;;;18.12;26.47;97282.69;5092677;28;20115;-76
2022/03/26 10:27:17;;;;;;;44.65;19.25;;;;;;;18.21;26.56;97290.59;5109055;28;20027;-76
2022/03/26 10:29:54;;;;;;;81.07;20.83;;;;;;;18.33;25.69;97295.28;5107547;28;20123;-76
2022/03/26 10:32:41;;;;;;;29.52;17.98;;;;;;;18.48;26.08;97287.31;5106342;28;20097;-76
2022/03/26 10:35:17;;;;;;;28.95;18.80;;;;;;;18.30;27.04;97286.84;5109360;28;20095;-76
2022/03/26 10:37:58;;;;;;;58.33;19.20;;;;;;;18.94;26.86;97275.66;5092046;28;20467;-76
2022/03/26 10:40:38;;;;;;;29.40;17.85;;;;;;;18.99;26.12;97281.25;5101473;28;20058;-76
2022/03/26 10:43:10;;;;;;;26.15;17.05;;;;;;;19.30;25.58;97284.47;5094248;28;20039;-76
2022/03/26 10:45:47;;;;;;;29.63;17.23;;;;;;;18.36;25.35;97286.94;5099916;28;20032;-76
2022/03/26 10:48:12;;;;;;;24.60;16.73;;;;;;;19.15;25.78;97289.03;5089902;28;20101;-76
2022/03/26 10:50:40;;;;;;;26.23;16.38;;;;;;;19.13;26.00;97275.06;5109710;28;20031;-76
2022/03/26 10:53:15;;;;;;;27.48;17.67;;;;;;;18.73;25.79;97281.75;5106205;27;20034;-76
2022/03/26 10:55:43;;;;;;;33.67;18.92;;;;;;;19.39;26.08;97274.53;5108267;28;20057;-77
2022/03/26 10:58:10;;;;;;;28.23;18.15;;;;;;;19.63;25.19;97270.69;5107765;28;20032;-77
2022/03/26 11:00:36;;;;;;;27.05;18.10;;;;;;;19.49;25.55;97271.56;5110586;28;20753;-76
2022/03/26 11:03:02;;;;;;;28.90;19.50;;;;;;;19.35;26.18;97267.94;5109483;28;20835;-76
2022/03/26 11:05:33;;;;;;;25.30;18.10;;;;;;;18.88;25.87;97268.38;5106385;28;20036;-77
2022/03/26 11:08:00;;;;;;;25.52;18.70;;;;;;;18.96;25.52;97266.47;5106007;28;20558;-77
2022/03/26 11:10:30;;;;;;;27.77;19.13;;;;;;;19.34;25.53;97260.94;5110004;28;20050;-77
2022/03/26 11:12:58;;;;;;;29.10;19.55;;;;;;;19.69;24.88;97269.13;5104124;28;20129;-77
2022/03/26 11:15:46;;;;;;;29.73;19.00;;;;;;;19.92;24.79;97253.72;5087775;28;20073;-76
2022/03/26 11:18:21;;;;;;;25.30;16.27;;;;;;;18.98;24.86;97261.78;5108173;28;20039;-76
2022/03/26 11:21:11;;;;;;;27.33;17.90;;;;;;;19.37;24.74;97263.22;5090751;28;20071;-76